sensor_id;sensor_type;location;lat;lon;timestamp;P1;durP1;ratioP1;P2;durP2;ratioP2
76626;SDS011;65519;53.230;10.390;2023-10-13T00:02:10;14.38;;;4.80;;
76626;SDS011;65519;53.230;10.390;2023-10-13T00:04:36;10.55;;;3.95;;
76626;SDS011;65519;53.230;10.390;2023-10-13T00:07:02;10.65;;;4.18;;
76626;SDS011;65519;53.230;10.390;2023-10-13T00:09:29;11.98;;;4.18;;
76626;SDS011;65519;53.230;10.390;2023-10-13T00:12:01;11.57;;;4.45;;
76626;SDS011;65519;53.230;10.390;2023-10-13T00:14:28;7.57;;;4.05;;
76626;SDS011;65519;53.230;10.390;2023-10-13T00:17:01;9.55;;;4.18;;
76626;SDS011;65519;53.230;10.390;2023-10-13T00:19:33;15.02;;;4.93;;
76626;SDS011;65519;53.230;10.390;2023-10-13T00:22:09;13.93;;;4.93;;
76626;SDS011;65519;53.230;10.390;2023-10-13T00:24:39;16.77;;;4.97;;
76626;SDS011;65519;53.230;10.390;2023-10-13T00:27:14;13.75;;;4.68;;
76626;SDS011;65519;53.230;10.390;2023-10-13T00:30:10;14.38;;;5.60;;
76626;SDS011;65519;53.230;10.390;2023-10-13T00:32:50;13.75;;;5.38;;
76626;SDS011;65519;53.230;10.390;2023-10-13T00:35:21;10.18;;;4.07;;
76626;SDS011;65519;53.230;10.390;2023-10-13T00:38:07;11.73;;;5.07;;
76626;SDS011;65519;53.230;10.390;2023-10-13T00:40:38;10.90;;;4.65;;
76626;SDS011;65519;53.230;10.390;2023-10-13T00:43:05;18.80;;;6.00;;
76626;SDS011;65519;53.230;10.390;2023-10-13T00:45:51;9.65;;;4.57;;
76626;SDS011;65519;53.230;10.390;2023-10-13T00:48:23;10.80;;;4.97;;
76626;SDS011;65519;53.230;10.390;2023-10-13T00:50:58;9.93;;;4.90;;
76626;SDS011;65519;53.230;10.390;2023-10-13T00:53:37;11.32;;;5.15;;
76626;SDS011;65519;53.230;10.390;2023-10-13T00:56:09;15.18;;;5.28;;
76626;SDS011;65519;53.230;10.390;2023-10-13T00:58:47;13.85;;;5.47;;
76626;SDS011;65519;53.230;10.390;2023-10-13T01:01:17;11.02;;;5.45;;
76626;SDS011;65519;53.230;10.390;2023-10-13T01:03:52;10.77;;;5.40;;
76626;SDS011;65519;53.230;10.390;2023-10-13T01:06:21;13.07;;;5.35;;
76626;SDS011;65519;53.230;10.390;2023-10-13T01:08:57;13.73;;;6.03;;
76626;SDS011;65519;53.230;10.390;2023-10-13T01:11:49;16.13;;;6.80;;
76626;SDS011;65519;53.230;10.390;2023-10-13T01:14:18;15.68;;;6.50;;
76626;SDS011;65519;53.230;10.390;2023-10-13T01:16:45;13.40;;;5.60;;
76626;SDS011;65519;53.230;10.390;2023-10-13T01:19:16;13.00;;;6.57;;
76626;SDS011;65519;53.230;10.390;2023-10-13T01:21:49;18.38;;;7.47;;
76626;SDS011;65519;53.230;10.390;2023-10-13T01:24:19;15.70;;;5.85;;
76626;SDS011;65519;53.230;10.390;2023-10-13T01:26:49;16.63;;;6.80;;
76626;SDS011;65519;53.230;10.390;2023-10-13T01:29:16;21.45;;;7.53;;
76626;SDS011;65519;53.230;10.390;2023-10-13T01:31:44;18.48;;;7.30;;
76626;SDS011;65519;53.230;10.390;2023-10-13T01:34:14;16.15;;;6.80;;
76626;SDS011;65519;53.230;10.390;2023-10-13T01:36:48;17.73;;;6.90;;
76626;SDS011;65519;53.230;10.390;2023-10-13T01:39:21;15.07;;;6.97;;
76626;SDS011;65519;53.230;10.390;2023-10-13T01:41:56;18.45;;;7.40;;
76626;SDS011;65519;53.230;10.390;2023-10-13T01:44:26;20.40;;;7.88;;
76626;SDS011;65519;53.230;10.390;2023-10-13T01:46:58;16.73;;;7.65;;
76626;SDS011;65519;53.230;10.390;2023-10-13T01:49:31;18.88;;;7.05;;
76626;SDS011;65519;53.230;10.390;2023-10-13T01:52:06;19.80;;;7.03;;
76626;SDS011;65519;53.230;10.390;2023-10-13T01:54:31;20.65;;;9.07;;
76626;SDS011;65519;53.230;10.390;2023-10-13T01:56:57;17.90;;;7.53;;
76626;SDS011;65519;53.230;10.390;2023-10-13T01:59:25;15.35;;;7.70;;
76626;SDS011;65519;53.230;10.390;2023-10-13T02:01:52;23.90;;;8.85;;
76626;SDS011;65519;53.230;10.390;2023-10-13T02:04:20;21.55;;;8.43;;
76626;SDS011;65519;53.230;10.390;2023-10-13T02:06:46;20.02;;;7.75;;
76626;SDS011;65519;53.230;10.390;2023-10-13T02:09:12;21.38;;;9.00;;
76626;SDS011;65519;53.230;10.390;2023-10-13T02:11:51;19.35;;;8.15;;
76626;SDS011;65519;53.230;10.390;2023-10-13T02:14:21;18.85;;;8.40;;
76626;SDS011;65519;53.230;10.390;2023-10-13T02:16:48;21.75;;;7.70;;
76626;SDS011;65519;53.230;10.390;2023-10-13T02:19:21;16.92;;;7.82;;
76626;SDS011;65519;53.230;10.390;2023-10-13T02:21:47;14.73;;;6.90;;
76626;SDS011;65519;53.230;10.390;2023-10-13T02:24:23;21.40;;;8.73;;
76626;SDS011;65519;53.230;10.390;2023-10-13T02:26:55;17.05;;;7.78;;
76626;SDS011;65519;53.230;10.390;2023-10-13T02:29:28;20.55;;;8.48;;
76626;SDS011;65519;53.230;10.390;2023-10-13T02:31:53;16.77;;;8.23;;
76626;SDS011;65519;53.230;10.390;2023-10-13T02:34:20;18.33;;;8.23;;
76626;SDS011;65519;53.230;10.390;2023-10-13T02:36:48;20.17;;;8.63;;
76626;SDS011;65519;53.230;10.390;2023-10-13T02:39:14;19.17;;;8.60;;
76626;SDS011;65519;53.230;10.390;2023-10-13T02:41:49;24.38;;;8.35;;
76626;SDS011;65519;53.230;10.390;2023-10-13T02:44:16;22.45;;;8.18;;
76626;SDS011;65519;53.230;10.390;2023-10-13T02:49:23;23.42;;;8.77;;
76626;SDS011;65519;53.230;10.390;2023-10-13T02:51:51;16.88;;;8.20;;
76626;SDS011;65519;53.230;10.390;2023-10-13T02:54:18;19.55;;;9.32;;
76626;SDS011;65519;53.230;10.390;2023-10-13T02:56:44;19.05;;;8.30;;
76626;SDS011;65519;53.230;10.390;2023-10-13T02:59:15;20.77;;;8.23;;
76626;SDS011;65519;53.230;10.390;2023-10-13T03:01:44;18.40;;;7.78;;
76626;SDS011;65519;53.230;10.390;2023-10-13T03:04:10;24.45;;;8.60;;
76626;SDS011;65519;53.230;10.390;2023-10-13T03:06:37;22.05;;;8.85;;
76626;SDS011;65519;53.230;10.390;2023-10-13T03:09:07;22.83;;;8.70;;
76626;SDS011;65519;53.230;10.390;2023-10-13T03:11:51;20.88;;;8.18;;
76626;SDS011;65519;53.230;10.390;2023-10-13T03:14:17;19.52;;;8.65;;
76626;SDS011;65519;53.230;10.390;2023-10-13T03:16:57;22.00;;;9.52;;
76626;SDS011;65519;53.230;10.390;2023-10-13T03:19:48;22.85;;;9.65;;
76626;SDS011;65519;53.230;10.390;2023-10-13T03:22:19;24.30;;;9.32;;
76626;SDS011;65519;53.230;10.390;2023-10-13T03:24:55;22.65;;;10.02;;
76626;SDS011;65519;53.230;10.390;2023-10-13T03:27:25;24.88;;;10.65;;
76626;SDS011;65519;53.230;10.390;2023-10-13T03:30:04;34.35;;;12.38;;
76626;SDS011;65519;53.230;10.390;2023-10-13T03:32:35;29.92;;;11.98;;
76626;SDS011;65519;53.230;10.390;2023-10-13T03:35:07;29.00;;;11.57;;
76626;SDS011;65519;53.230;10.390;2023-10-13T03:37:54;35.95;;;13.00;;
76626;SDS011;65519;53.230;10.390;2023-10-13T03:40:20;30.25;;;12.30;;
76626;SDS011;65519;53.230;10.390;2023-10-13T03:45:38;30.25;;;12.95;;
76626;SDS011;65519;53.230;10.390;2023-10-13T03:48:13;34.80;;;14.18;;
76626;SDS011;65519;53.230;10.390;2023-10-13T03:50:58;34.13;;;14.57;;
76626;SDS011;65519;53.230;10.390;2023-10-13T03:53:32;40.20;;;14.63;;
76626;SDS011;65519;53.230;10.390;2023-10-13T03:56:05;36.45;;;13.90;;
76626;SDS011;65519;53.230;10.390;2023-10-13T03:58:37;45.03;;;16.90;;
76626;SDS011;65519;53.230;10.390;2023-10-13T04:01:04;43.80;;;15.95;;
76626;SDS011;65519;53.230;10.390;2023-10-13T04:03:35;45.60;;;16.80;;
76626;SDS011;65519;53.230;10.390;2023-10-13T04:06:04;40.90;;;16.92;;
76626;SDS011;65519;53.230;10.390;2023-10-13T04:08:33;43.72;;;17.33;;
76626;SDS011;65519;53.230;10.390;2023-10-13T04:11:08;58.38;;;19.67;;
76626;SDS011;65519;53.230;10.390;2023-10-13T04:13:52;55.35;;;19.30;;
76626;SDS011;65519;53.230;10.390;2023-10-13T04:16:37;56.22;;;20.65;;
76626;SDS011;65519;53.230;10.390;2023-10-13T04:19:04;57.70;;;20.92;;
76626;SDS011;65519;53.230;10.390;2023-10-13T04:21:33;68.88;;;21.08;;
76626;SDS011;65519;53.230;10.390;2023-10-13T04:24:07;61.50;;;21.83;;
76626;SDS011;65519;53.230;10.390;2023-10-13T04:26:44;64.15;;;21.88;;
76626;SDS011;65519;53.230;10.390;2023-10-13T04:29:28;72.30;;;26.10;;
76626;SDS011;65519;53.230;10.390;2023-10-13T04:32:12;63.90;;;22.00;;
76626;SDS011;65519;53.230;10.390;2023-10-13T04:34:53;76.40;;;24.55;;
76626;SDS011;65519;53.230;10.390;2023-10-13T04:37:24;66.38;;;23.27;;
76626;SDS011;65519;53.230;10.390;2023-10-13T04:39:53;75.45;;;25.77;;
76626;SDS011;65519;53.230;10.390;2023-10-13T04:42:24;70.93;;;24.23;;
76626;SDS011;65519;53.230;10.390;2023-10-13T04:45:14;65.28;;;23.85;;
76626;SDS011;65519;53.230;10.390;2023-10-13T04:47:59;68.18;;;24.40;;
76626;SDS011;65519;53.230;10.390;2023-10-13T04:50:48;72.15;;;22.75;;
76626;SDS011;65519;53.230;10.390;2023-10-13T04:53:24;63.22;;;23.35;;
76626;SDS011;65519;53.230;10.390;2023-10-13T04:55:59;65.22;;;23.40;;
76626;SDS011;65519;53.230;10.390;2023-10-13T04:58:28;80.68;;;25.38;;
76626;SDS011;65519;53.230;10.390;2023-10-13T05:01:03;66.72;;;24.38;;
76626;SDS011;65519;53.230;10.390;2023-10-13T05:03:48;62.92;;;23.77;;
76626;SDS011;65519;53.230;10.390;2023-10-13T05:06:32;70.65;;;25.90;;
76626;SDS011;65519;53.230;10.390;2023-10-13T05:09:07;68.18;;;22.75;;
76626;SDS011;65519;53.230;10.390;2023-10-13T05:11:51;64.50;;;23.08;;
76626;SDS011;65519;53.230;10.390;2023-10-13T05:14:36;66.65;;;25.45;;
76626;SDS011;65519;53.230;10.390;2023-10-13T05:17:19;70.78;;;25.10;;
76626;SDS011;65519;53.230;10.390;2023-10-13T05:20:03;67.80;;;24.30;;
76626;SDS011;65519;53.230;10.390;2023-10-13T05:22:48;68.70;;;26.88;;
76626;SDS011;65519;53.230;10.390;2023-10-13T05:25:34;70.55;;;27.08;;
76626;SDS011;65519;53.230;10.390;2023-10-13T05:28:39;78.10;;;27.40;;
76626;SDS011;65519;53.230;10.390;2023-10-13T05:31:22;65.85;;;26.42;;
76626;SDS011;65519;53.230;10.390;2023-10-13T05:34:06;74.30;;;27.08;;
76626;SDS011;65519;53.230;10.390;2023-10-13T05:36:50;75.40;;;27.92;;
76626;SDS011;65519;53.230;10.390;2023-10-13T05:39:34;76.93;;;27.55;;
76626;SDS011;65519;53.230;10.390;2023-10-13T05:42:18;74.82;;;25.83;;
76626;SDS011;65519;53.230;10.390;2023-10-13T05:45:02;70.60;;;26.20;;
76626;SDS011;65519;53.230;10.390;2023-10-13T05:47:33;65.95;;;26.33;;
76626;SDS011;65519;53.230;10.390;2023-10-13T05:50:10;68.80;;;26.42;;
76626;SDS011;65519;53.230;10.390;2023-10-13T05:52:49;64.93;;;25.65;;
76626;SDS011;65519;53.230;10.390;2023-10-13T05:55:17;62.42;;;25.23;;
76626;SDS011;65519;53.230;10.390;2023-10-13T05:58:01;62.33;;;23.65;;
76626;SDS011;65519;53.230;10.390;2023-10-13T06:00:45;66.10;;;25.60;;
76626;SDS011;65519;53.230;10.390;2023-10-13T06:03:29;66.43;;;27.30;;
76626;SDS011;65519;53.230;10.390;2023-10-13T06:06:12;69.53;;;25.42;;
76626;SDS011;65519;53.230;10.390;2023-10-13T06:08:56;57.15;;;25.08;;
76626;SDS011;65519;53.230;10.390;2023-10-13T06:11:40;60.08;;;24.80;;
76626;SDS011;65519;53.230;10.390;2023-10-13T06:14:24;61.50;;;25.52;;
76626;SDS011;65519;53.230;10.390;2023-10-13T06:17:08;65.78;;;26.10;;
76626;SDS011;65519;53.230;10.390;2023-10-13T06:19:52;56.20;;;23.95;;
76626;SDS011;65519;53.230;10.390;2023-10-13T06:22:36;58.47;;;23.42;;
76626;SDS011;65519;53.230;10.390;2023-10-13T06:25:20;54.08;;;23.17;;
76626;SDS011;65519;53.230;10.390;2023-10-13T06:28:04;53.08;;;21.27;;
76626;SDS011;65519;53.230;10.390;2023-10-13T06:30:58;57.67;;;23.52;;
76626;SDS011;65519;53.230;10.390;2023-10-13T06:33:26;52.33;;;22.88;;
76626;SDS011;65519;53.230;10.390;2023-10-13T06:35:57;59.90;;;26.92;;
76626;SDS011;65519;53.230;10.390;2023-10-13T06:38:23;77.55;;;31.60;;
76626;SDS011;65519;53.230;10.390;2023-10-13T06:40:49;59.13;;;27.90;;
76626;SDS011;65519;53.230;10.390;2023-10-13T06:43:18;57.70;;;25.88;;
76626;SDS011;65519;53.230;10.390;2023-10-13T06:45:47;50.90;;;22.15;;
76626;SDS011;65519;53.230;10.390;2023-10-13T06:48:26;48.53;;;21.40;;
76626;SDS011;65519;53.230;10.390;2023-10-13T06:50:51;53.85;;;22.40;;
76626;SDS011;65519;53.230;10.390;2023-10-13T06:53:20;45.15;;;22.27;;
76626;SDS011;65519;53.230;10.390;2023-10-13T06:55:46;46.97;;;21.02;;
76626;SDS011;65519;53.230;10.390;2023-10-13T06:58:13;42.10;;;19.33;;
76626;SDS011;65519;53.230;10.390;2023-10-13T07:00:42;39.55;;;19.23;;
76626;SDS011;65519;53.230;10.390;2023-10-13T07:03:18;44.22;;;21.15;;
76626;SDS011;65519;53.230;10.390;2023-10-13T07:05:44;42.70;;;18.80;;
76626;SDS011;65519;53.230;10.390;2023-10-13T07:08:12;44.05;;;19.17;;
76626;SDS011;65519;53.230;10.390;2023-10-13T07:13:14;40.75;;;19.52;;
76626;SDS011;65519;53.230;10.390;2023-10-13T07:15:40;58.72;;;28.25;;
76626;SDS011;65519;53.230;10.390;2023-10-13T07:18:13;42.40;;;18.35;;
76626;SDS011;65519;53.230;10.390;2023-10-13T07:20:43;35.63;;;16.90;;
76626;SDS011;65519;53.230;10.390;2023-10-13T07:23:12;37.38;;;18.20;;
76626;SDS011;65519;53.230;10.390;2023-10-13T07:25:53;37.40;;;16.67;;
76626;SDS011;65519;53.230;10.390;2023-10-13T07:28:21;42.50;;;17.58;;
76626;SDS011;65519;53.230;10.390;2023-10-13T07:30:46;36.05;;;15.98;;
76626;SDS011;65519;53.230;10.390;2023-10-13T07:33:18;42.92;;;19.02;;
76626;SDS011;65519;53.230;10.390;2023-10-13T07:36:08;37.60;;;17.40;;
76626;SDS011;65519;53.230;10.390;2023-10-13T07:38:41;36.55;;;17.42;;
76626;SDS011;65519;53.230;10.390;2023-10-13T07:41:08;38.45;;;17.40;;
76626;SDS011;65519;53.230;10.390;2023-10-13T07:43:34;34.63;;;17.45;;
76626;SDS011;65519;53.230;10.390;2023-10-13T07:46:02;31.63;;;16.92;;
76626;SDS011;65519;53.230;10.390;2023-10-13T07:48:35;34.25;;;15.15;;
76626;SDS011;65519;53.230;10.390;2023-10-13T07:51:03;32.03;;;15.50;;
76626;SDS011;65519;53.230;10.390;2023-10-13T07:53:30;27.92;;;13.65;;
76626;SDS011;65519;53.230;10.390;2023-10-13T07:56:08;27.73;;;14.02;;
76626;SDS011;65519;53.230;10.390;2023-10-13T07:58:39;27.52;;;14.55;;
76626;SDS011;65519;53.230;10.390;2023-10-13T08:01:20;30.13;;;13.38;;
76626;SDS011;65519;53.230;10.390;2023-10-13T08:03:47;28.15;;;14.05;;
76626;SDS011;65519;53.230;10.390;2023-10-13T08:06:15;23.60;;;11.80;;
76626;SDS011;65519;53.230;10.390;2023-10-13T08:08:42;28.27;;;12.88;;
76626;SDS011;65519;53.230;10.390;2023-10-13T08:13:57;25.92;;;13.30;;
76626;SDS011;65519;53.230;10.390;2023-10-13T08:16:42;24.20;;;12.68;;
76626;SDS011;65519;53.230;10.390;2023-10-13T08:19:14;21.33;;;11.30;;
76626;SDS011;65519;53.230;10.390;2023-10-13T08:21:52;21.48;;;10.90;;
76626;SDS011;65519;53.230;10.390;2023-10-13T08:24:39;37.28;;;19.45;;
76626;SDS011;65519;53.230;10.390;2023-10-13T08:27:06;37.15;;;18.35;;
76626;SDS011;65519;53.230;10.390;2023-10-13T08:29:44;34.70;;;19.60;;
76626;SDS011;65519;53.230;10.390;2023-10-13T08:32:23;26.15;;;12.68;;
76626;SDS011;65519;53.230;10.390;2023-10-13T08:34:52;16.15;;;8.40;;
76626;SDS011;65519;53.230;10.390;2023-10-13T08:37:19;17.38;;;9.15;;
76626;SDS011;65519;53.230;10.390;2023-10-13T08:39:48;14.10;;;8.10;;
76626;SDS011;65519;53.230;10.390;2023-10-13T08:42:45;13.20;;;7.55;;
76626;SDS011;65519;53.230;10.390;2023-10-13T08:45:11;14.18;;;7.13;;
76626;SDS011;65519;53.230;10.390;2023-10-13T08:47:53;12.50;;;7.60;;
76626;SDS011;65519;53.230;10.390;2023-10-13T08:55:56;12.88;;;6.80;;
76626;SDS011;65519;53.230;10.390;2023-10-13T08:58:35;12.23;;;6.25;;
76626;SDS011;65519;53.230;10.390;2023-10-13T09:01:30;11.93;;;6.35;;
76626;SDS011;65519;53.230;10.390;2023-10-13T09:03:57;28.80;;;15.32;;
76626;SDS011;65519;53.230;10.390;2023-10-13T09:09:31;12.32;;;7.20;;
76626;SDS011;65519;53.230;10.390;2023-10-13T09:12:12;12.70;;;7.35;;
76626;SDS011;65519;53.230;10.390;2023-10-13T09:14:39;9.65;;;6.40;;
76626;SDS011;65519;53.230;10.390;2023-10-13T09:17:22;10.05;;;6.53;;
76626;SDS011;65519;53.230;10.390;2023-10-13T09:20:04;9.82;;;5.25;;
76626;SDS011;65519;53.230;10.390;2023-10-13T09:22:55;10.02;;;6.05;;
76626;SDS011;65519;53.230;10.390;2023-10-13T09:25:30;14.00;;;6.43;;
76626;SDS011;65519;53.230;10.390;2023-10-13T09:27:59;9.57;;;6.43;;
76626;SDS011;65519;53.230;10.390;2023-10-13T09:30:26;9.38;;;6.20;;
76626;SDS011;65519;53.230;10.390;2023-10-13T09:33:03;8.52;;;5.32;;
76626;SDS011;65519;53.230;10.390;2023-10-13T09:35:41;12.02;;;6.18;;
76626;SDS011;65519;53.230;10.390;2023-10-13T09:38:17;10.32;;;5.75;;
76626;SDS011;65519;53.230;10.390;2023-10-13T09:40:43;8.30;;;5.50;;
76626;SDS011;65519;53.230;10.390;2023-10-13T09:43:18;9.02;;;6.05;;
76626;SDS011;65519;53.230;10.390;2023-10-13T09:45:47;8.75;;;5.53;;
76626;SDS011;65519;53.230;10.390;2023-10-13T09:48:39;8.82;;;5.45;;
76626;SDS011;65519;53.230;10.390;2023-10-13T09:51:12;12.07;;;7.63;;
76626;SDS011;65519;53.230;10.390;2023-10-13T09:53:38;25.67;;;14.73;;
76626;SDS011;65519;53.230;10.390;2023-10-13T09:56:11;14.65;;;7.93;;
76626;SDS011;65519;53.230;10.390;2023-10-13T10:01:33;19.70;;;9.32;;
76626;SDS011;65519;53.230;10.390;2023-10-13T10:04:07;13.05;;;6.75;;
76626;SDS011;65519;53.230;10.390;2023-10-13T10:06:51;10.82;;;6.95;;
76626;SDS011;65519;53.230;10.390;2023-10-13T10:09:28;10.68;;;6.57;;
76626;SDS011;65519;53.230;10.390;2023-10-13T10:15:00;15.30;;;7.78;;
76626;SDS011;65519;53.230;10.390;2023-10-13T10:17:39;12.68;;;7.28;;
76626;SDS011;65519;53.230;10.390;2023-10-13T10:20:06;12.85;;;7.32;;
76626;SDS011;65519;53.230;10.390;2023-10-13T10:22:40;13.95;;;7.78;;
76626;SDS011;65519;53.230;10.390;2023-10-13T10:25:13;14.85;;;7.93;;
76626;SDS011;65519;53.230;10.390;2023-10-13T10:27:57;13.05;;;7.47;;
76626;SDS011;65519;53.230;10.390;2023-10-13T10:30:24;57.40;;;30.42;;
76626;SDS011;65519;53.230;10.390;2023-10-13T10:32:56;37.92;;;9.90;;
76626;SDS011;65519;53.230;10.390;2023-10-13T10:35:24;15.77;;;8.57;;
76626;SDS011;65519;53.230;10.390;2023-10-13T10:38:14;33.38;;;19.25;;
76626;SDS011;65519;53.230;10.390;2023-10-13T10:41:03;13.07;;;7.43;;
76626;SDS011;65519;53.230;10.390;2023-10-13T10:46:08;14.73;;;7.20;;
76626;SDS011;65519;53.230;10.390;2023-10-13T10:48:36;12.10;;;6.35;;
76626;SDS011;65519;53.230;10.390;2023-10-13T10:51:03;11.52;;;6.30;;
76626;SDS011;65519;53.230;10.390;2023-10-13T10:53:33;13.27;;;7.53;;
76626;SDS011;65519;53.230;10.390;2023-10-13T10:56:08;11.30;;;7.25;;
76626;SDS011;65519;53.230;10.390;2023-10-13T10:58:58;13.40;;;6.32;;
76626;SDS011;65519;53.230;10.390;2023-10-13T11:01:28;11.35;;;5.53;;
76626;SDS011;65519;53.230;10.390;2023-10-13T11:04:05;9.93;;;5.38;;
76626;SDS011;65519;53.230;10.390;2023-10-13T11:06:50;11.55;;;5.00;;
76626;SDS011;65519;53.230;10.390;2023-10-13T11:09:33;23.02;;;12.65;;
76626;SDS011;65519;53.230;10.390;2023-10-13T11:14:31;13.80;;;8.73;;
76626;SDS011;65519;53.230;10.390;2023-10-13T11:16:57;33.15;;;16.80;;
76626;SDS011;65519;53.230;10.390;2023-10-13T11:19:34;14.45;;;7.65;;
76626;SDS011;65519;53.230;10.390;2023-10-13T11:25:02;11.60;;;6.45;;
76626;SDS011;65519;53.230;10.390;2023-10-13T11:27:35;10.60;;;5.70;;
76626;SDS011;65519;53.230;10.390;2023-10-13T11:30:25;10.32;;;6.03;;
76626;SDS011;65519;53.230;10.390;2023-10-13T11:32:56;9.15;;;4.93;;
76626;SDS011;65519;53.230;10.390;2023-10-13T11:35:38;7.28;;;4.65;;
76626;SDS011;65519;53.230;10.390;2023-10-13T11:38:20;10.60;;;6.63;;
76626;SDS011;65519;53.230;10.390;2023-10-13T11:46:08;11.73;;;4.82;;
76626;SDS011;65519;53.230;10.390;2023-10-13T11:48:34;7.82;;;4.40;;
76626;SDS011;65519;53.230;10.390;2023-10-13T11:51:04;8.05;;;4.35;;
76626;SDS011;65519;53.230;10.390;2023-10-13T11:53:36;8.23;;;4.97;;
76626;SDS011;65519;53.230;10.390;2023-10-13T11:56:03;8.00;;;5.18;;
76626;SDS011;65519;53.230;10.390;2023-10-13T11:58:37;8.15;;;3.97;;
76626;SDS011;65519;53.230;10.390;2023-10-13T12:01:03;6.90;;;4.70;;
76626;SDS011;65519;53.230;10.390;2023-10-13T12:06:29;20.40;;;11.68;;
76626;SDS011;65519;53.230;10.390;2023-10-13T12:08:58;20.50;;;9.18;;
76626;SDS011;65519;53.230;10.390;2023-10-13T12:11:37;14.63;;;6.88;;
76626;SDS011;65519;53.230;10.390;2023-10-13T12:14:09;9.32;;;4.95;;
76626;SDS011;65519;53.230;10.390;2023-10-13T12:16:52;7.88;;;4.65;;
76626;SDS011;65519;53.230;10.390;2023-10-13T12:19:22;15.05;;;5.18;;
76626;SDS011;65519;53.230;10.390;2023-10-13T12:21:49;10.77;;;4.72;;
76626;SDS011;65519;53.230;10.390;2023-10-13T12:24:15;8.57;;;4.13;;
76626;SDS011;65519;53.230;10.390;2023-10-13T12:26:59;11.80;;;4.68;;
76626;SDS011;65519;53.230;10.390;2023-10-13T12:29:25;11.60;;;4.63;;
76626;SDS011;65519;53.230;10.390;2023-10-13T12:31:57;9.45;;;4.25;;
76626;SDS011;65519;53.230;10.390;2023-10-13T12:34:38;9.55;;;5.00;;
76626;SDS011;65519;53.230;10.390;2023-10-13T12:37:22;5.60;;;3.70;;
76626;SDS011;65519;53.230;10.390;2023-10-13T12:42:54;6.90;;;4.38;;
76626;SDS011;65519;53.230;10.390;2023-10-13T12:45:45;12.15;;;5.22;;
76626;SDS011;65519;53.230;10.390;2023-10-13T12:48:30;28.55;;;12.68;;
76626;SDS011;65519;53.230;10.390;2023-10-13T12:51:15;14.40;;;6.88;;
76626;SDS011;65519;53.230;10.390;2023-10-13T12:54:06;10.45;;;4.88;;
76626;SDS011;65519;53.230;10.390;2023-10-13T12:56:48;10.07;;;4.32;;
76626;SDS011;65519;53.230;10.390;2023-10-13T12:59:14;9.15;;;5.20;;
76626;SDS011;65519;53.230;10.390;2023-10-13T13:01:39;10.60;;;4.80;;
76626;SDS011;65519;53.230;10.390;2023-10-13T13:04:09;9.80;;;4.07;;
76626;SDS011;65519;53.230;10.390;2023-10-13T13:06:45;11.07;;;5.28;;
76626;SDS011;65519;53.230;10.390;2023-10-13T13:09:12;8.82;;;4.45;;
76626;SDS011;65519;53.230;10.390;2023-10-13T13:11:38;12.00;;;4.82;;
76626;SDS011;65519;53.230;10.390;2023-10-13T13:14:08;28.60;;;13.18;;
76626;SDS011;65519;53.230;10.390;2023-10-13T13:16:34;9.07;;;4.57;;
76626;SDS011;65519;53.230;10.390;2023-10-13T13:19:01;17.00;;;10.35;;
76626;SDS011;65519;53.230;10.390;2023-10-13T13:21:35;10.90;;;5.03;;
76626;SDS011;65519;53.230;10.390;2023-10-13T13:24:02;13.27;;;5.25;;
76626;SDS011;65519;53.230;10.390;2023-10-13T13:26:29;11.73;;;4.95;;
76626;SDS011;65519;53.230;10.390;2023-10-13T13:28:56;8.18;;;4.10;;
76626;SDS011;65519;53.230;10.390;2023-10-13T13:31:22;9.40;;;4.30;;
76626;SDS011;65519;53.230;10.390;2023-10-13T13:33:54;10.68;;;5.20;;
76626;SDS011;65519;53.230;10.390;2023-10-13T13:36:19;14.57;;;4.55;;
76626;SDS011;65519;53.230;10.390;2023-10-13T13:38:47;11.60;;;4.65;;
76626;SDS011;65519;53.230;10.390;2023-10-13T13:41:16;12.93;;;4.75;;
76626;SDS011;65519;53.230;10.390;2023-10-13T13:43:46;10.63;;;4.70;;
76626;SDS011;65519;53.230;10.390;2023-10-13T13:46:20;15.43;;;4.97;;
76626;SDS011;65519;53.230;10.390;2023-10-13T13:48:54;15.60;;;5.15;;
76626;SDS011;65519;53.230;10.390;2023-10-13T13:51:24;10.93;;;5.20;;
76626;SDS011;65519;53.230;10.390;2023-10-13T13:53:54;10.82;;;6.30;;
76626;SDS011;65519;53.230;10.390;2023-10-13T13:56:20;16.63;;;6.25;;
76626;SDS011;65519;53.230;10.390;2023-10-13T13:58:47;39.00;;;21.77;;
76626;SDS011;65519;53.230;10.390;2023-10-13T14:01:15;20.80;;;10.20;;
76626;SDS011;65519;53.230;10.390;2023-10-13T14:03:43;15.45;;;7.20;;
76626;SDS011;65519;53.230;10.390;2023-10-13T14:06:12;11.38;;;5.60;;
76626;SDS011;65519;53.230;10.390;2023-10-13T14:08:46;8.50;;;4.80;;
76626;SDS011;65519;53.230;10.390;2023-10-13T14:11:16;30.98;;;17.55;;
76626;SDS011;65519;53.230;10.390;2023-10-13T14:14:01;15.82;;;7.28;;
76626;SDS011;65519;53.230;10.390;2023-10-13T14:16:29;16.55;;;8.50;;
76626;SDS011;65519;53.230;10.390;2023-10-13T14:18:58;11.32;;;5.05;;
76626;SDS011;65519;53.230;10.390;2023-10-13T14:21:26;12.18;;;5.28;;
76626;SDS011;65519;53.230;10.390;2023-10-13T14:23:53;13.43;;;6.45;;
76626;SDS011;65519;53.230;10.390;2023-10-13T14:26:19;10.23;;;5.10;;
76626;SDS011;65519;53.230;10.390;2023-10-13T14:28:49;12.73;;;4.55;;
76626;SDS011;65519;53.230;10.390;2023-10-13T14:31:29;12.18;;;4.80;;
76626;SDS011;65519;53.230;10.390;2023-10-13T14:33:56;12.85;;;5.25;;
76626;SDS011;65519;53.230;10.390;2023-10-13T14:36:25;16.20;;;6.10;;
76626;SDS011;65519;53.230;10.390;2023-10-13T14:38:54;16.00;;;5.38;;
76626;SDS011;65519;53.230;10.390;2023-10-13T14:41:20;9.60;;;4.40;;
76626;SDS011;65519;53.230;10.390;2023-10-13T14:43:46;10.48;;;5.20;;
76626;SDS011;65519;53.230;10.390;2023-10-13T14:46:17;9.68;;;5.57;;
76626;SDS011;65519;53.230;10.390;2023-10-13T14:48:48;13.68;;;5.18;;
76626;SDS011;65519;53.230;10.390;2023-10-13T14:51:16;17.85;;;5.93;;
76626;SDS011;65519;53.230;10.390;2023-10-13T14:53:42;12.20;;;4.53;;
76626;SDS011;65519;53.230;10.390;2023-10-13T14:56:15;12.63;;;5.13;;
76626;SDS011;65519;53.230;10.390;2023-10-13T14:58:42;13.77;;;4.97;;
76626;SDS011;65519;53.230;10.390;2023-10-13T15:01:15;15.40;;;6.95;;
76626;SDS011;65519;53.230;10.390;2023-10-13T15:03:45;18.73;;;8.45;;
76626;SDS011;65519;53.230;10.390;2023-10-13T15:06:17;18.95;;;7.10;;
76626;SDS011;65519;53.230;10.390;2023-10-13T15:08:46;13.73;;;5.93;;
76626;SDS011;65519;53.230;10.390;2023-10-13T15:11:13;13.05;;;4.88;;
76626;SDS011;65519;53.230;10.390;2023-10-13T15:13:39;11.98;;;4.80;;
76626;SDS011;65519;53.230;10.390;2023-10-13T15:16:15;16.13;;;6.38;;
76626;SDS011;65519;53.230;10.390;2023-10-13T15:18:45;12.38;;;4.72;;
76626;SDS011;65519;53.230;10.390;2023-10-13T15:21:24;13.88;;;4.80;;
76626;SDS011;65519;53.230;10.390;2023-10-13T15:23:59;12.95;;;4.60;;
76626;SDS011;65519;53.230;10.390;2023-10-13T15:26:31;9.63;;;4.68;;
76626;SDS011;65519;53.230;10.390;2023-10-13T15:29:02;16.60;;;6.25;;
76626;SDS011;65519;53.230;10.390;2023-10-13T15:31:34;11.52;;;5.57;;
76626;SDS011;65519;53.230;10.390;2023-10-13T15:34:02;44.83;;;17.08;;
76626;SDS011;65519;53.230;10.390;2023-10-13T15:36:32;11.68;;;5.75;;
76626;SDS011;65519;53.230;10.390;2023-10-13T15:38:59;15.88;;;6.10;;
76626;SDS011;65519;53.230;10.390;2023-10-13T15:41:25;17.35;;;6.65;;